Time;durP1;ratioP1;P1;durP2;ratioP2;P2;SDS_P1;SDS_P2;PMS_P1;PMS_P2;Temp;Humidity;BMP_temperature;BMP_pressure;BME280_temperature;BME280_humidity;BME280_pressure;Samples;Min_cycle;Max_cycle;Signal;HPM_P1;HPM_P2
2021/03/30 00:01:29;;;;;;;3.44;1.61;;;;;;;4.76;69.64;100828.50;2025887;77;21020;-72
2021/03/30 00:04:30;;;;;;;9.88;1.75;;;;;;;4.73;69.54;100828.38;2027568;79;20339;-72
2021/03/30 00:07:32;;;;;;;4.54;1.59;;;;;;;4.72;69.92;100829.19;2027460;79;20336;-72
2021/03/30 00:10:39;;;;;;;3.63;2.01;;;;;;;4.65;70.25;100832.28;2026957;79;20356;-72
2021/03/30 00:13:41;;;;;;;4.91;2.14;;;;;;;4.54;70.23;100821.56;2027941;79;20352;-72
2021/03/30 00:16:43;;;;;;;5.80;2.14;;;;;;;4.51;70.58;100822.31;2026423;77;20382;-72
2021/03/30 00:19:44;;;;;;;7.47;2.46;;;;;;;4.47;70.71;100822.09;2026944;79;20981;-72
2021/03/30 00:22:47;;;;;;;7.97;2.81;;;;;;;4.43;70.85;100818.53;2027809;79;20430;-72
2021/03/30 00:25:49;;;;;;;5.63;3.15;;;;;;;4.42;71.11;100824.47;2026832;79;20372;-72
2021/03/30 00:28:50;;;;;;;3.56;1.71;;;;;;;4.37;70.95;100817.38;2027304;79;20332;-72
2021/03/30 00:31:52;;;;;;;4.04;2.08;;;;;;;4.35;71.64;100814.75;2026363;77;21339;-72
2021/03/30 00:34:53;;;;;;;3.46;2.06;;;;;;;4.32;71.51;100812.06;2027406;79;20338;-72
2021/03/30 00:37:55;;;;;;;5.03;2.08;;;;;;;4.22;71.56;100812.44;2027134;79;20311;-71
2021/03/30 00:41:00;;;;;;;3.34;1.91;;;;;;;4.18;71.49;100810.56;2027249;79;20364;-72
2021/03/30 00:44:09;;;;;;;2.72;1.44;;;;;;;4.15;71.76;100813.88;2027606;79;20354;-73
2021/03/30 00:47:15;;;;;;;3.72;1.81;;;;;;;4.09;71.85;100816.16;2026573;77;20295;-72
2021/03/30 00:50:20;;;;;;;3.60;2.14;;;;;;;4.05;72.43;100818.53;2027157;79;20190;-72
2021/03/30 00:53:21;;;;;;;4.61;1.88;;;;;;;4.01;72.25;100819.22;2026665;79;20383;-72
2021/03/30 00:56:25;;;;;;;6.56;1.73;;;;;;;3.98;71.96;100809.69;2027179;79;20302;-71
2021/03/30 00:59:26;;;;;;;2.64;1.55;;;;;;;3.93;72.05;100814.59;2027349;79;20360;-71
2021/03/30 01:02:28;;;;;;;2.72;1.31;;;;;;;3.88;71.72;100813.53;2025994;77;20479;-71
2021/03/30 01:05:30;;;;;;;2.29;1.33;;;;;;;3.89;72.61;100814.41;2027312;79;20333;-71
2021/03/30 01:09:06;;;;;;;1.89;1.30;;;;;;;3.86;72.91;100807.44;2026822;79;20347;-71
2021/03/30 01:12:17;;;;;;;3.72;1.31;;;;;;;3.80;72.77;100814.88;2027202;79;20348;-71
2021/03/30 01:15:39;;;;;;;2.74;1.20;;;;;;;3.73;72.68;100811.94;2025096;77;20391;-72
2021/03/30 01:18:57;;;;;;;2.46;1.40;;;;;;;3.69;72.70;100799.78;2027064;79;20766;-72
2021/03/30 01:22:26;;;;;;;2.14;0.96;;;;;;;3.61;72.96;100809.72;2026591;79;20334;-72
2021/03/30 01:25:29;;;;;;;1.73;1.20;;;;;;;3.52;73.02;100812.72;2026300;79;20307;-72
2021/03/30 01:28:46;;;;;;;3.17;1.30;;;;;;;3.46;72.91;100803.84;2026824;79;21172;-71
2021/03/30 01:31:55;;;;;;;1.45;0.96;;;;;;;3.45;72.70;100802.09;2026756;79;20363;-72
2021/03/30 01:34:58;;;;;;;3.23;1.30;;;;;;;3.45;73.44;100805.56;2026732;79;20315;-72
2021/03/30 01:38:01;;;;;;;3.95;1.30;;;;;;;3.40;73.32;100801.84;2026977;79;20182;-72
2021/03/30 01:41:03;;;;;;;4.45;1.30;;;;;;;3.31;73.40;100804.88;2027057;79;20338;-72
2021/03/30 01:44:07;;;;;;;4.00;1.10;;;;;;;3.22;73.38;100801.88;2026663;79;20298;-72
2021/03/30 01:47:09;;;;;;;3.01;1.19;;;;;;;3.18;73.28;100799.09;2025743;77;20482;-72
2021/03/30 01:50:12;;;;;;;3.95;1.42;;;;;;;3.17;73.41;100802.47;2026495;79;20763;-72
2021/03/30 01:53:17;;;;;;;3.70;1.86;;;;;;;3.17;73.35;100799.91;2025945;79;20330;-72
2021/03/30 01:56:20;;;;;;;2.61;1.95;;;;;;;3.12;73.75;100807.38;2027300;79;20350;-71
2021/03/30 01:59:24;;;;;;;2.60;1.20;;;;;;;3.11;74.33;100802.19;2027160;79;20332;-72
2021/03/30 02:02:26;;;;;;;1.80;1.23;;;;;;;3.11;74.27;100808.19;2027033;77;62053;-71
2021/03/30 02:05:29;;;;;;;1.89;1.20;;;;;;;3.10;74.00;100808.13;2027682;80;20311;-71
2021/03/30 02:08:32;;;;;;;2.15;1.30;;;;;;;3.04;73.99;100813.81;2028124;80;20711;-71
2021/03/30 02:11:55;;;;;;;1.58;1.10;;;;;;;3.00;73.85;100811.91;2027484;79;20315;-72
2021/03/30 02:14:58;;;;;;;2.81;1.00;;;;;;;2.94;73.54;100811.63;2028468;80;20340;-71
2021/03/30 02:18:09;;;;;;;2.24;1.20;;;;;;;2.90;73.68;100799.47;2027027;77;21371;-71
2021/03/30 02:21:17;;;;;;;3.20;1.46;;;;;;;2.86;73.82;100800.97;2028469;80;20302;-71
2021/03/30 02:24:20;;;;;;;5.70;1.92;;;;;;;2.80;73.95;100808.38;2028325;79;20342;-71
2021/03/30 02:27:23;;;;;;;3.59;1.51;;;;;;;2.75;74.19;100806.41;2029309;79;20328;-71
2021/03/30 02:30:26;;;;;;;2.59;1.65;;;;;;;2.71;74.34;100805.38;2028432;77;24805;-72
2021/03/30 02:33:29;;;;;;;2.74;1.67;;;;;;;2.64;74.72;100809.31;2029506;79;20773;-69
2021/03/30 02:36:31;;;;;;;1.26;1.09;;;;;;;2.62;74.29;100804.91;2029567;79;20323;-71
2021/03/30 02:39:34;;;;;;;2.10;1.15;;;;;;;2.64;74.54;100805.88;2029191;79;20421;-71
2021/03/30 02:42:39;;;;;;;3.00;1.58;;;;;;;2.60;74.69;100811.66;2029352;79;20392;-71
2021/03/30 02:45:42;;;;;;;2.89;1.54;;;;;;;2.54;74.54;100804.53;2027525;77;20303;-72
2021/03/30 02:48:44;;;;;;;2.22;1.54;;;;;;;2.49;74.80;100807.66;2029419;79;20330;-71
2021/03/30 02:51:47;;;;;;;3.88;1.84;;;;;;;2.36;75.03;100801.03;2028836;79;20303;-71
2021/03/30 02:54:49;;;;;;;4.90;1.80;;;;;;;2.34;75.15;100803.53;2028643;79;20315;-71
2021/03/30 02:57:51;;;;;;;5.74;2.53;;;;;;;2.29;75.16;100806.63;2029539;79;20367;-71
2021/03/30 03:00:54;;;;;;;7.38;2.63;;;;;;;2.25;75.05;100805.59;2027938;77;21113;-71
2021/03/30 03:03:55;;;;;;;4.19;2.24;;;;;;;2.28;75.87;100798.06;2028671;79;20386;-71
2021/03/30 03:07:00;;;;;;;2.99;1.92;;;;;;;2.29;75.95;100799.84;2027948;79;20344;-72
2021/03/30 03:10:04;;;;;;;2.31;1.60;;;;;;;2.29;75.60;100798.94;2028205;79;20804;-71
2021/03/30 03:13:16;;;;;;;1.30;1.08;;;;;;;2.33;75.71;100803.44;2027599;79;20334;-71
2021/03/30 03:16:20;;;;;;;1.52;1.42;;;;;;;2.31;76.20;100808.47;2026891;77;20304;-72
2021/03/30 03:19:23;;;;;;;2.34;1.10;;;;;;;2.28;76.00;100800.63;2028150;79;20352;-71
2021/03/30 03:22:25;;;;;;;3.89;1.74;;;;;;;2.21;75.71;100805.38;2027551;79;20339;-71
2021/03/30 03:25:27;;;;;;;6.41;2.09;;;;;;;2.20;75.37;100807.06;2027369;79;20344;-71
2021/03/30 03:28:29;;;;;;;4.21;1.48;;;;;;;2.16;75.63;100805.16;2027544;79;20392;-71
2021/03/30 03:31:31;;;;;;;4.78;1.38;;;;;;;2.15;75.92;100810.16;2026628;77;20793;-71
2021/03/30 03:34:33;;;;;;;1.65;1.09;;;;;;;2.10;75.54;100804.81;2027028;79;20307;-72
2021/03/30 03:37:47;;;;;;;2.05;1.10;;;;;;;2.09;75.38;100810.75;2027228;79;20429;-71
2021/03/30 03:40:48;;;;;;;2.08;1.29;;;;;;;2.02;75.30;100813.78;2027528;79;20348;-71
2021/03/30 03:43:50;;;;;;;2.49;1.10;;;;;;;1.97;75.19;100810.09;2027521;79;20788;-71
2021/03/30 03:46:52;;;;;;;2.03;0.95;;;;;;;1.93;75.37;100810.72;2026769;77;43475;-71
2021/03/30 03:49:53;;;;;;;1.56;1.02;;;;;;;1.85;75.57;100812.03;2028453;79;20747;-70
2021/03/30 03:52:55;;;;;;;1.81;1.06;;;;;;;1.81;75.35;100801.63;2027900;79;20932;-70
2021/03/30 03:55:58;;;;;;;4.30;1.15;;;;;;;1.79;75.42;100808.31;2026955;79;20307;-70
2021/03/30 03:59:05;;;;;;;1.51;1.00;;;;;;;1.76;75.42;100805.59;2027322;79;20333;-70
2021/03/30 04:02:15;;;;;;;2.45;1.20;;;;;;;1.71;75.63;100813.84;2026075;78;20706;-70
2021/03/30 04:05:22;;;;;;;2.86;1.34;;;;;;;1.65;75.67;100809.28;2027793;79;20374;-70
2021/03/30 04:08:27;;;;;;;3.53;1.50;;;;;;;1.65;75.75;100803.28;2027140;79;21058;-70
2021/03/30 04:11:30;;;;;;;3.31;1.50;;;;;;;1.62;76.46;100806.56;2030326;79;20322;-71
2021/03/30 04:14:33;;;;;;;2.63;1.44;;;;;;;1.60;76.49;100799.56;2026769;79;20338;-70
2021/03/30 04:17:35;;;;;;;2.45;1.59;;;;;;;1.61;76.53;100802.22;2026700;77;20621;-71
2021/03/30 04:20:37;;;;;;;6.50;1.42;;;;;;;1.63;76.57;100797.19;2027390;79;20323;-70
2021/03/30 04:23:43;;;;;;;3.08;1.58;;;;;;;1.61;76.49;100804.75;2026785;79;20299;-70
2021/03/30 04:26:44;;;;;;;8.39;1.35;;;;;;;1.60;76.40;100810.69;2027371;79;20332;-70
2021/03/30 04:29:46;;;;;;;2.69;1.41;;;;;;;1.58;76.11;100817.41;2027006;79;20323;-70
2021/03/30 04:32:48;;;;;;;1.99;1.41;;;;;;;1.52;76.23;100817.09;2026501;79;26413;-71
2021/03/30 04:35:50;;;;;;;2.16;1.48;;;;;;;1.49;76.46;100809.25;2026757;79;20368;-70
2021/03/30 04:38:52;;;;;;;4.95;2.35;;;;;;;1.45;76.34;100815.88;2028009;79;20750;-71
2021/03/30 04:41:53;;;;;;;5.43;3.01;;;;;;;1.44;76.28;100810.69;2025893;79;20344;-70
2021/03/30 04:44:55;;;;;;;4.70;2.49;;;;;;;1.45;76.57;100812.44;2026537;79;20318;-71
2021/03/30 04:47:56;;;;;;;4.31;1.85;;;;;;;1.47;77.41;100824.53;2026354;77;20318;-71
2021/03/30 04:50:58;;;;;;;3.99;1.67;;;;;;;1.42;77.61;100819.94;2027403;79;20306;-70
2021/03/30 04:54:00;;;;;;;2.54;1.63;;;;;;;1.40;77.09;100826.63;2026455;79;20372;-71
2021/03/30 04:57:02;;;;;;;4.85;1.67;;;;;;;1.36;76.89;100828.16;2026659;79;20314;-70
2021/03/30 05:00:04;;;;;;;2.47;1.50;;;;;;;1.31;76.95;100818.47;2026642;79;20291;-70
2021/03/30 05:03:06;;;;;;;4.16;1.69;;;;;;;1.28;77.06;100826.88;2025941;77;20338;-71
2021/03/30 05:06:08;;;;;;;1.81;1.30;;;;;;;1.30;77.61;100821.81;2027442;79;20413;-71
2021/03/30 05:09:10;;;;;;;4.06;1.49;;;;;;;1.29;77.27;100825.19;2027351;79;20826;-71
2021/03/30 05:12:12;;;;;;;1.52;1.40;;;;;;;1.24;76.96;100814.66;2026574;79;20941;-70
2021/03/30 05:15:13;;;;;;;2.54;1.38;;;;;;;1.17;76.83;100822.81;2026579;76;20681;-71
2021/03/30 05:18:15;;;;;;;3.26;1.34;;;;;;;1.11;76.62;100827.59;2026662;79;20303;-70
2021/03/30 05:21:18;;;;;;;2.13;1.41;;;;;;;1.09;76.64;100824.06;2026947;79;20351;-70
2021/03/30 05:24:19;;;;;;;2.89;1.73;;;;;;;1.07;76.82;100834.19;2026833;79;20787;-71
2021/03/30 05:27:21;;;;;;;2.88;1.42;;;;;;;1.06;77.32;100835.00;2022758;79;20330;-72
2021/03/30 05:30:23;;;;;;;7.94;1.60;;;;;;;1.03;77.63;100837.38;2025775;79;20437;-71
2021/03/30 05:33:25;;;;;;;2.01;1.41;;;;;;;1.03;78.01;100839.94;2026599;79;20327;-71
2021/03/30 05:36:26;;;;;;;2.44;1.46;;;;;;;1.10;78.76;100836.06;2027242;79;20351;-72
2021/03/30 05:39:28;;;;;;;2.25;1.44;;;;;;;1.16;79.05;100832.16;2026516;79;20318;-72
2021/03/30 05:42:30;;;;;;;4.01;1.60;;;;;;;1.15;78.72;100830.41;2026705;79;20299;-72
2021/03/30 05:45:31;;;;;;;3.19;1.54;;;;;;;1.14;78.45;100831.19;2026103;77;20564;-70
2021/03/30 05:48:33;;;;;;;4.56;1.77;;;;;;;1.17;78.22;100831.38;2027439;79;20351;-69
2021/03/30 05:51:38;;;;;;;5.01;1.96;;;;;;;1.24;78.09;100835.13;2027073;79;20307;-69
2021/03/30 05:54:42;;;;;;;3.80;1.98;;;;;;;1.29;78.29;100838.84;2026360;80;20330;-69
2021/03/30 05:57:44;;;;;;;3.38;2.19;;;;;;;1.35;78.43;100838.31;2026532;79;20784;-69
2021/03/30 06:00:47;;;;;;;4.28;2.59;;;;;;;1.42;78.51;100846.41;2026271;77;20335;-69
2021/03/30 06:03:51;;;;;;;5.34;2.67;;;;;;;1.50;78.59;100842.59;2026974;80;20698;-69
2021/03/30 06:06:53;;;;;;;5.93;3.10;;;;;;;1.56;79.11;100849.72;2026695;80;20352;-69
2021/03/30 06:09:56;;;;;;;5.46;2.66;;;;;;;1.65;79.48;100846.81;2026919;80;20310;-67
2021/03/30 06:12:59;;;;;;;3.16;2.17;;;;;;;1.73;79.52;100851.53;2026554;80;20314;-68
2021/03/30 06:16:20;;;;;;;2.90;2.47;;;;;;;1.92;79.62;100848.28;2025685;77;20332;-68
2021/03/30 06:19:21;;;;;;;4.20;1.67;;;;;;;2.11;79.17;100848.44;2027475;80;20330;-68
2021/03/30 06:22:26;;;;;;;3.08;1.76;;;;;;;2.26;78.88;100850.94;2026659;80;21195;-68
2021/03/30 06:25:49;;;;;;;3.83;1.77;;;;;;;2.43;78.61;100850.13;2026230;80;20330;-68
2021/03/30 06:28:51;;;;;;;6.25;1.94;;;;;;;2.92;78.14;100850.03;2026717;79;20332;-69
2021/03/30 06:31:54;;;;;;;4.31;1.89;;;;;;;3.57;76.21;100847.19;2025792;80;40025;-68
2021/03/30 06:35:11;;;;;;;2.65;1.74;;;;;;;4.17;74.02;100842.22;2026654;80;20311;-68
2021/03/30 06:38:13;;;;;;;3.96;1.73;;;;;;;4.87;71.85;100849.53;2026690;80;20350;-68
2021/03/30 06:41:30;;;;;;;5.96;2.42;;;;;;;5.42;69.55;100844.94;2026224;80;20391;-68
2021/03/30 06:44:36;;;;;;;14.38;5.88;;;;;;;5.93;67.68;100846.09;2026349;79;20327;-69
2021/03/30 06:47:39;;;;;;;12.44;7.55;;;;;;;6.31;66.43;100841.47;2025514;77;21022;-68
2021/03/30 06:50:41;;;;;;;7.59;4.00;;;;;;;6.66;65.32;100843.59;2026722;80;20891;-73
2021/03/30 06:53:43;;;;;;;7.86;4.20;;;;;;;6.83;63.90;100844.16;2027215;80;20334;-71
2021/03/30 06:56:57;;;;;;;11.76;5.53;;;;;;;6.98;63.76;100838.63;2026312;79;20291;-71
2021/03/30 06:59:58;;;;;;;15.93;10.50;;;;;;;7.16;63.78;100843.50;2026830;79;20328;-71
2021/03/30 07:03:03;;;;;;;9.41;5.45;;;;;;;7.24;63.87;100848.09;2025784;77;20457;-71
2021/03/30 07:06:10;;;;;;;12.96;7.00;;;;;;;7.39;63.95;100847.72;2027219;80;20311;-72
2021/03/30 07:09:13;;;;;;;10.63;6.78;;;;;;;7.47;63.84;100850.53;2026823;79;20208;-72
2021/03/30 07:12:16;;;;;;;10.63;6.40;;;;;;;7.64;63.60;100846.78;2027620;79;20163;-71
2021/03/30 07:15:20;;;;;;;14.60;7.57;;;;;;;7.87;62.77;100844.88;2025609;77;21545;-71
2021/03/30 07:18:33;;;;;;;10.74;5.34;;;;;;;8.16;62.08;100846.59;2027643;79;21320;-70
2021/03/30 07:22:02;;;;;;;11.48;5.38;;;;;;;8.43;60.77;100843.94;2027564;79;20187;-71
2021/03/30 07:25:06;;;;;;;12.72;4.98;;;;;;;8.80;59.68;100842.38;2027570;79;20189;-71
2021/03/30 07:28:17;;;;;;;12.21;4.15;;;;;;;9.14;59.15;100838.88;2027224;79;20192;-71
2021/03/30 07:31:27;;;;;;;7.99;4.74;;;;;;;9.51;58.03;100835.44;2028793;77;20183;-71
2021/03/30 07:34:38;;;;;;;7.66;5.21;;;;;;;9.92;57.43;100840.69;2027780;79;20199;-71
2021/03/30 07:37:44;;;;;;;8.18;5.05;;;;;;;10.33;56.75;100845.91;2027373;79;20171;-71
2021/03/30 07:40:47;;;;;;;10.01;5.24;;;;;;;10.52;55.08;100842.81;2027843;79;20195;-71
2021/03/30 07:43:50;;;;;;;8.77;4.69;;;;;;;10.78;54.15;100849.38;2026880;79;20196;-71
2021/03/30 07:46:55;;;;;;;10.96;4.91;;;;;;;11.00;53.50;100853.22;2026926;77;20968;-71
2021/03/30 07:49:56;;;;;;;7.95;4.54;;;;;;;11.44;53.41;100843.53;2027729;79;20166;-71
2021/03/30 07:52:58;;;;;;;10.02;4.03;;;;;;;11.89;52.67;100847.72;2027064;79;20158;-70
2021/03/30 07:56:00;;;;;;;10.27;5.06;;;;;;;12.31;52.35;100843.91;2026688;79;20212;-70
2021/03/30 07:59:02;;;;;;;11.56;5.68;;;;;;;12.62;51.27;100846.00;2026942;79;20198;-70
2021/03/30 08:02:04;;;;;;;15.86;6.54;;;;;;;12.96;50.47;100844.59;2026887;77;20223;-70
2021/03/30 08:05:10;;;;;;;17.11;6.54;;;;;;;13.25;49.63;100838.78;2027417;79;20623;-71
2021/03/30 08:08:21;;;;;;;13.57;6.50;;;;;;;13.56;48.88;100842.50;2026603;79;20211;-71
2021/03/30 08:11:41;;;;;;;18.51;6.40;;;;;;;13.89;48.18;100841.81;2027432;79;20218;-71
2021/03/30 08:14:42;;;;;;;20.98;7.00;;;;;;;14.21;46.91;100837.63;2027515;79;20166;-73
2021/03/30 08:17:48;;;;;;;15.77;6.86;;;;;;;14.52;46.33;100841.22;2026165;77;23121;-71
2021/03/30 08:21:08;;;;;;;15.71;6.00;;;;;;;14.87;46.10;100836.94;2025576;79;20281;-71
2021/03/30 08:24:10;;;;;;;12.04;5.90;;;;;;;15.26;44.65;100825.63;2025331;79;20194;-71
2021/03/30 08:27:30;;;;;;;14.94;5.53;;;;;;;15.70;43.74;100831.72;2025943;79;21075;-71
2021/03/30 08:30:54;;;;;;;10.88;4.61;;;;;;;16.12;42.21;100831.59;2023655;77;20220;-71
2021/03/30 08:34:01;;;;;;;8.70;4.35;;;;;;;16.30;40.17;100827.13;2025428;79;20207;-71
2021/03/30 08:37:10;;;;;;;10.18;4.59;;;;;;;16.61;39.36;100829.59;2024991;79;20186;-71
2021/03/30 08:40:36;;;;;;;8.07;3.79;;;;;;;16.92;38.89;100825.94;2025722;79;20700;-71
2021/03/30 08:43:40;;;;;;;8.51;4.21;;;;;;;17.17;38.61;100826.59;2025267;79;20319;-71
2021/03/30 08:46:45;;;;;;;6.82;3.67;;;;;;;17.33;36.69;100826.47;2025043;77;20182;-71
2021/03/30 08:49:47;;;;;;;8.31;4.21;;;;;;;17.61;37.30;100824.47;2025223;79;20613;-71
2021/03/30 08:52:53;;;;;;;9.80;4.50;;;;;;;17.91;36.58;100826.78;2028811;79;20178;-71
2021/03/30 08:55:55;;;;;;;7.59;4.14;;;;;;;18.12;35.82;100834.41;2024545;79;20158;-71
2021/03/30 08:58:57;;;;;;;8.05;3.97;;;;;;;18.49;35.38;100827.81;2025351;79;20224;-71
2021/03/30 09:02:02;;;;;;;8.57;4.13;;;;;;;18.71;34.71;100834.56;2024278;77;20827;-71
2021/03/30 09:05:14;;;;;;;10.44;3.92;;;;;;;18.97;34.40;100827.13;2024589;79;20223;-71
2021/03/30 09:08:42;;;;;;;6.36;3.58;;;;;;;19.21;33.81;100824.97;2025605;79;20192;-71
2021/03/30 09:11:45;;;;;;;7.63;3.59;;;;;;;19.35;33.00;100822.97;2024924;79;20924;-71
2021/03/30 09:14:59;;;;;;;8.55;3.42;;;;;;;19.63;31.94;100826.03;2024968;79;20178;-70
2021/03/30 09:18:01;;;;;;;9.63;3.20;;;;;;;19.76;32.56;100822.28;2024654;77;20178;-71
2021/03/30 09:21:13;;;;;;;5.49;3.36;;;;;;;19.97;32.16;100817.47;2025081;79;20190;-71
2021/03/30 09:25:04;;;;;;;7.95;3.71;;;;;;;20.32;31.77;100822.03;2025538;79;20162;-71
2021/03/30 09:27:42;;;;;;;5.30;2.46;;;;;;;20.49;31.23;100812.88;2024815;79;20543;-71
2021/03/30 09:30:45;;;;;;;5.55;2.70;;;;;;;20.74;30.95;100813.16;2025188;77;21249;-71
2021/03/30 09:33:48;;;;;;;4.76;2.46;;;;;;;20.97;30.60;100817.91;2025529;79;20216;-71
2021/03/30 09:36:49;;;;;;;3.75;2.22;;;;;;;20.72;29.68;100809.72;2025665;79;20174;-72
2021/03/30 09:39:51;;;;;;;4.60;2.56;;;;;;;20.97;29.78;100804.69;2025806;79;20183;-72
2021/03/30 09:42:53;;;;;;;6.10;2.69;;;;;;;21.16;28.80;100804.25;2025683;79;20219;-73
2021/03/30 09:45:55;;;;;;;4.76;1.99;;;;;;;21.22;29.19;100799.69;2024188;77;22093;-72
2021/03/30 09:48:57;;;;;;;8.52;2.40;;;;;;;21.61;29.13;100800.44;2025218;79;20718;-72
2021/03/30 09:52:01;;;;;;;5.22;1.92;;;;;;;21.62;27.22;100791.59;2025754;79;20194;-72
2021/03/30 09:55:05;;;;;;;5.78;1.64;;;;;;;21.97;28.78;100795.91;2025060;79;20186;-72
2021/03/30 09:58:12;;;;;;;7.70;2.09;;;;;;;22.21;28.46;100789.03;2025385;79;20178;-73
2021/03/30 10:01:14;;;;;;;4.24;2.16;;;;;;;22.43;27.65;100783.09;2023692;79;78578;-70
2021/03/30 10:04:16;;;;;;;4.61;1.65;;;;;;;22.64;27.77;100779.81;2025606;80;20982;-71
2021/03/30 10:07:20;;;;;;;6.75;1.80;;;;;;;22.84;27.21;100780.06;2026048;79;21451;-70
2021/03/30 10:10:21;;;;;;;11.79;3.47;;;;;;;23.14;27.33;100770.19;2026059;80;20227;-70
2021/03/30 10:13:24;;;;;;;3.97;1.69;;;;;;;23.26;25.99;100768.91;2024976;80;20212;-69
2021/03/30 10:16:26;;;;;;;4.91;1.34;;;;;;;23.35;26.68;100759.81;2024207;78;20499;-70
2021/03/30 10:19:27;;;;;;;2.90;1.30;;;;;;;23.67;26.18;100766.59;2025156;80;20339;-70
2021/03/30 10:22:34;;;;;;;4.19;1.29;;;;;;;23.90;24.64;100764.00;2025253;80;21056;-72
2021/03/30 10:25:36;;;;;;;3.99;1.00;;;;;;;23.99;24.17;100760.97;2024560;80;20211;-70
2021/03/30 10:28:39;;;;;;;4.18;1.10;;;;;;;24.08;23.92;100757.13;2025828;80;20166;-71
2021/03/30 10:34:43;;;;;;;2.81;1.05;;;;;;;24.22;21.93;100756.56;2025636;79;21136;-71
2021/03/30 10:37:46;;;;;;;1.90;0.95;;;;;;;24.45;22.59;100751.28;2025882;80;20224;-70
2021/03/30 10:40:48;;;;;;;4.20;1.09;;;;;;;24.51;22.73;100747.50;2025673;79;20208;-70
2021/03/30 10:43:57;;;;;;;3.65;1.10;;;;;;;24.77;23.45;100747.28;2024874;80;20178;-70
2021/03/30 10:47:12;;;;;;;1.63;0.94;;;;;;;25.00;22.25;100743.72;2025335;77;20284;-70
2021/03/30 10:50:17;;;;;;;3.30;1.48;;;;;;;25.08;22.39;100730.09;2027321;79;20695;-71
2021/03/30 10:53:20;;;;;;;2.21;0.90;;;;;;;25.08;21.05;100732.75;2026350;79;20303;-69
2021/03/30 10:56:22;;;;;;;3.85;0.94;;;;;;;25.08;22.05;100722.13;2026616;79;20251;-70
2021/03/30 10:59:25;;;;;;;2.35;1.09;;;;;;;25.22;21.97;100717.09;2025990;79;20229;-71
2021/03/30 11:02:26;;;;;;;2.08;1.05;;;;;;;25.24;21.79;100712.56;2025484;77;21332;-70
2021/03/30 11:05:28;;;;;;;1.29;0.80;;;;;;;25.34;21.98;100711.25;2025947;79;20196;-70
2021/03/30 11:08:30;;;;;;;1.60;0.90;;;;;;;25.27;20.29;100707.09;2026131;79;20179;-70
2021/03/30 11:11:31;;;;;;;3.99;0.95;;;;;;;25.38;21.69;100699.53;2026698;79;20167;-70
2021/03/30 11:14:33;;;;;;;2.08;0.98;;;;;;;25.51;21.18;100697.19;2025961;79;20163;-69
2021/03/30 11:17:35;;;;;;;3.14;0.95;;;;;;;25.26;20.81;100698.25;2025177;77;22597;-70
2021/03/30 11:20:36;;;;;;;1.98;0.77;;;;;;;25.15;20.60;100697.03;2028106;79;20303;-70
2021/03/30 11:23:40;;;;;;;4.84;0.80;;;;;;;25.45;21.65;100686.81;2027570;79;20938;-70
2021/03/30 11:26:48;;;;;;;2.49;1.23;;;;;;;25.59;21.10;100679.06;2028009;79;21197;-69
2021/03/30 11:30:06;;;;;;;7.06;1.08;;;;;;;25.72;20.68;100671.44;2028421;79;20347;-71
2021/03/30 11:33:24;;;;;;;4.59;0.91;;;;;;;25.71;20.51;100670.56;2022135;77;22194;-70
2021/03/30 11:36:26;;;;;;;;;;;;;;;25.79;19.70;100668.41;2026551;80;20257;-70
2021/03/30 11:39:28;;;;;;;3.80;0.81;;;;;;;25.99;19.83;100663.94;2022568;80;20073;-72
2021/03/30 11:42:30;;;;;;;6.64;1.05;;;;;;;25.96;19.71;100653.44;2022275;80;20827;-71
2021/03/30 11:45:32;;;;;;;3.44;0.81;;;;;;;26.28;20.93;100658.06;2022760;77;27408;-72
2021/03/30 11:48:34;;;;;;;4.11;0.91;;;;;;;26.53;19.83;100656.88;2028168;79;20212;-74
2021/03/30 11:51:35;;;;;;;4.26;1.11;;;;;;;26.65;19.89;100662.44;2028527;79;20292;-71
2021/03/30 11:54:37;;;;;;;5.71;0.71;;;;;;;26.58;18.33;100654.88;2028382;79;20171;-76
2021/03/30 11:57:40;;;;;;;2.29;0.84;;;;;;;26.60;19.63;100653.84;2027878;79;20265;-72
2021/03/30 12:00:42;;;;;;;2.41;0.90;;;;;;;26.58;18.70;100649.53;2026472;77;22458;-72
2021/03/30 12:03:44;;;;;;;1.19;0.61;;;;;;;26.70;19.66;100638.22;2028026;79;20227;-72
2021/03/30 12:06:45;;;;;;;0.80;0.51;;;;;;;27.04;19.12;100638.25;2027280;79;20162;-72
2021/03/30 12:09:47;;;;;;;1.55;0.95;;;;;;;27.12;19.18;100637.84;2027792;79;20241;-71
2021/03/30 12:12:50;;;;;;;4.07;1.02;;;;;;;27.15;19.42;100635.03;2028001;79;20211;-74
2021/03/30 12:15:52;;;;;;;6.41;1.00;;;;;;;27.11;18.04;100630.81;2027069;77;21845;-72
2021/03/30 12:18:55;;;;;;;1.15;0.69;;;;;;;27.18;18.40;100628.66;2027479;79;20196;-73
2021/03/30 12:21:57;;;;;;;1.69;0.70;;;;;;;26.99;16.83;100623.41;2028421;79;20175;-73
2021/03/30 12:25:00;;;;;;;3.92;1.10;;;;;;;27.04;17.41;100618.72;2027697;79;20174;-73
2021/03/30 12:28:01;;;;;;;3.30;0.60;;;;;;;27.09;17.20;100614.84;2023683;79;20159;-70
2021/03/30 12:31:03;;;;;;;0.63;0.50;;;;;;;27.36;18.09;100615.19;2027141;77;20199;-71
2021/03/30 12:34:05;;;;;;;4.11;0.60;;;;;;;27.61;17.58;100612.03;2027836;79;20194;-72
2021/03/30 12:37:09;;;;;;;3.29;0.60;;;;;;;27.64;18.65;100611.03;2028010;79;20178;-72
2021/03/30 12:40:10;;;;;;;2.53;0.56;;;;;;;27.82;18.17;100598.44;2027925;79;20559;-71
2021/03/30 12:43:12;;;;;;;1.73;0.65;;;;;;;27.89;17.70;100591.84;2027315;79;20202;-70
2021/03/30 12:46:14;;;;;;;4.24;0.60;;;;;;;27.67;17.62;100594.88;2026210;77;20194;-72
2021/03/30 12:49:15;;;;;;;4.18;0.70;;;;;;;27.73;16.56;100596.31;2028046;79;20220;-73
2021/03/30 12:52:17;;;;;;;1.52;0.50;;;;;;;27.64;16.99;100587.00;2027419;79;20179;-72
2021/03/30 12:55:19;;;;;;;2.17;0.47;;;;;;;27.74;16.75;100590.03;2027253;79;20649;-71
2021/03/30 12:58:21;;;;;;;1.91;0.57;;;;;;;27.78;16.42;100581.75;2028764;79;20195;-72
2021/03/30 13:01:22;;;;;;;1.29;0.51;;;;;;;27.86;16.94;100584.88;2026481;77;21343;-71
2021/03/30 13:04:25;;;;;;;0.82;0.50;;;;;;;27.66;15.52;100578.00;2027642;79;20194;-71
2021/03/30 13:07:27;;;;;;;0.56;0.50;;;;;;;27.59;17.80;100573.03;2026668;79;20174;-72
2021/03/30 13:10:29;;;;;;;1.20;0.55;;;;;;;27.49;16.42;100575.38;2025218;79;20194;-71
2021/03/30 13:13:30;;;;;;;2.28;0.69;;;;;;;27.61;18.59;100565.78;2025592;79;20645;-71
2021/03/30 13:16:32;;;;;;;2.29;0.60;;;;;;;27.63;16.69;100562.13;2024797;77;21396;-71
2021/03/30 13:19:34;;;;;;;1.40;0.45;;;;;;;27.65;16.19;100552.25;2026179;79;20171;-71
2021/03/30 13:22:45;;;;;;;0.94;0.40;;;;;;;27.17;16.02;100545.13;2025490;79;20218;-72
2021/03/30 13:25:47;;;;;;;3.30;0.49;;;;;;;27.37;17.63;100547.56;2025680;79;20216;-72
2021/03/30 13:28:57;;;;;;;0.65;0.40;;;;;;;27.42;16.69;100543.75;2025354;79;20204;-71
2021/03/30 13:31:59;;;;;;;2.39;0.43;;;;;;;27.51;16.97;100533.44;2024619;77;22166;-70
2021/03/30 13:35:01;;;;;;;3.34;0.60;;;;;;;27.75;16.63;100533.88;2025596;79;20204;-70
2021/03/30 13:38:04;;;;;;;1.02;0.52;;;;;;;27.82;16.88;100531.72;2025731;79;20167;-73
2021/03/30 13:41:05;;;;;;;3.09;0.56;;;;;;;27.92;17.35;100522.25;2025427;79;20214;-73
2021/03/30 13:44:24;;;;;;;6.46;0.59;;;;;;;28.09;16.44;100515.91;2025156;79;20199;-72
2021/03/30 13:47:26;;;;;;;2.85;0.50;;;;;;;28.00;16.72;100507.47;2023913;77;22052;-71
2021/03/30 13:50:33;;;;;;;1.90;0.65;;;;;;;28.12;17.43;100500.56;2025741;79;20244;-74
2021/03/30 13:53:36;;;;;;;4.07;0.60;;;;;;;28.21;16.51;100507.19;2024788;79;20182;-71
2021/03/30 13:56:38;;;;;;;3.92;0.52;;;;;;;28.15;15.99;100496.84;2025875;79;21034;-71
2021/03/30 13:59:40;;;;;;;0.70;0.50;;;;;;;27.98;16.98;100489.81;2025384;79;20178;-71
2021/03/30 14:02:42;;;;;;;2.36;0.60;;;;;;;28.13;17.03;100494.25;2024129;77;20204;-72
2021/03/30 14:05:44;;;;;;;2.59;0.50;;;;;;;28.14;16.12;100482.63;2025327;80;20531;-72
2021/03/30 14:08:45;;;;;;;2.56;0.50;;;;;;;28.03;16.26;100474.41;2025333;79;20692;-71
2021/03/30 14:11:49;;;;;;;0.61;0.41;;;;;;;28.05;16.58;100471.66;2025200;80;20170;-71
2021/03/30 14:14:56;;;;;;;1.73;0.50;;;;;;;28.21;16.09;100467.97;2025236;79;20740;-72
2021/03/30 14:24:39;;;;;;;0.79;0.55;;;;;;;28.13;16.37;100459.53;2025288;79;20637;-72
2021/03/30 14:27:41;;;;;;;1.21;0.50;;;;;;;27.98;16.59;100457.78;2025960;79;20186;-71
2021/03/30 14:31:02;;;;;;;2.28;0.43;;;;;;;27.83;16.11;100451.56;2025294;77;20778;-71
2021/03/30 14:34:04;;;;;;;3.61;0.38;;;;;;;27.64;15.31;100451.75;2025380;79;20227;-71